createdAt,value
2023-04-25T00:04:41.949Z,15.88
2023-04-25T00:10:28.116Z,15.87
2023-04-25T00:16:12.650Z,15.84
2023-04-25T00:21:57.157Z,15.84
2023-04-25T00:27:41.196Z,15.81
2023-04-25T00:33:25.268Z,15.84
2023-04-25T00:39:09.435Z,15.8
2023-04-25T00:44:53.883Z,15.75
2023-04-25T00:50:38.125Z,15.75
2023-04-25T00:56:22.473Z,15.72
2023-04-25T01:02:07.001Z,15.7
2023-04-25T01:07:51.366Z,15.68
2023-04-25T01:13:36.082Z,15.64
2023-04-25T01:19:20.523Z,15.63
2023-04-25T01:25:05.437Z,15.61
2023-04-25T01:30:49.803Z,15.59
2023-04-25T01:36:34.530Z,15.55
2023-04-25T01:42:18.928Z,15.56
2023-04-25T01:48:03.514Z,15.51
2023-04-25T01:53:48.065Z,15.52
2023-04-25T01:59:33.344Z,15.48
2023-04-25T02:05:17.644Z,15.46
2023-04-25T02:11:01.715Z,15.43
2023-04-25T02:16:46.049Z,15.44
2023-04-25T02:22:30.832Z,15.44
2023-04-25T02:28:14.913Z,15.4
2023-04-25T02:33:59.196Z,15.34
2023-04-25T02:39:43.317Z,15.31
2023-04-25T02:45:27.436Z,15.28
2023-04-25T02:51:11.564Z,15.27
2023-04-25T02:56:56.065Z,15.28
2023-04-25T03:02:40.179Z,15.25
2023-04-25T03:08:25.735Z,15.22
2023-04-25T03:14:09.897Z,15.18
2023-04-25T03:19:54.331Z,15.15
2023-04-25T03:25:38.545Z,15.12
2023-04-25T03:31:23.854Z,15.12
2023-04-25T03:37:08.205Z,15.1
2023-04-25T03:42:52.562Z,15.04
2023-04-25T03:48:38.115Z,15
2023-04-25T03:54:26.781Z,14.96
2023-04-25T04:00:12.320Z,14.91
2023-04-25T04:05:56.632Z,14.86
2023-04-25T04:11:41.018Z,14.83
2023-04-25T04:17:25.140Z,14.82
2023-04-25T04:23:09.481Z,14.82
2023-04-25T04:28:53.841Z,14.84
2023-04-25T04:34:38.200Z,14.81
2023-04-25T04:40:22.651Z,14.77
2023-04-25T04:46:06.872Z,14.76
2023-04-25T04:51:51.169Z,14.77
2023-04-25T04:57:35.604Z,14.77
2023-04-25T05:03:19.931Z,14.77
2023-04-25T05:09:06.787Z,14.77
2023-04-25T05:14:50.920Z,14.75
2023-04-25T05:20:35.253Z,14.79
2023-04-25T05:26:19.471Z,14.8
2023-04-25T05:32:03.567Z,14.81
2023-04-25T05:37:48.127Z,14.88
2023-04-25T05:43:34.160Z,14.86
2023-04-25T05:49:19.662Z,14.91
2023-04-25T05:55:06.524Z,14.92
2023-04-25T06:00:51.014Z,14.93
2023-04-25T06:06:36.282Z,14.94
2023-04-25T06:12:20.257Z,14.98
2023-04-25T06:18:04.483Z,15.03
2023-04-25T06:23:49.235Z,15.06
2023-04-25T06:29:35.357Z,15.05
2023-04-25T06:35:19.698Z,15.06
2023-04-25T06:41:04.067Z,15.07
2023-04-25T06:46:48.373Z,15.05
2023-04-25T06:52:35.400Z,15.08
2023-04-25T06:58:19.948Z,15.07
2023-04-25T07:04:04.512Z,15.15
2023-04-25T07:09:49.972Z,15.25
2023-04-25T07:15:34.192Z,15.32
2023-04-25T07:21:18.511Z,15.38
2023-04-25T07:27:02.764Z,15.42
2023-04-25T07:32:48.484Z,15.5
2023-04-25T07:38:32.913Z,15.65
2023-04-25T07:44:17.104Z,15.75
2023-04-25T07:50:01.753Z,15.91
2023-04-25T07:55:46.780Z,16.08
2023-04-25T08:01:32.032Z,16.28
2023-04-25T08:07:16.409Z,16.4
2023-04-25T08:13:00.971Z,16.5
2023-04-25T08:18:44.907Z,16.56
2023-04-25T08:24:29.961Z,16.7
2023-04-25T08:30:14.403Z,16.76
2023-04-25T08:35:58.661Z,16.8
2023-04-25T08:41:42.877Z,16.96
2023-04-25T08:47:28.656Z,17.13
2023-04-25T08:53:13.731Z,17.32
2023-04-25T08:58:58.208Z,17.48
2023-04-25T09:04:42.472Z,17.71
2023-04-25T09:10:27.843Z,17.91
2023-04-25T09:16:15.079Z,18.03
2023-04-25T09:22:01.453Z,18.15
2023-04-25T09:27:54.807Z,18.4
2023-04-25T09:33:39.273Z,18.39
2023-04-25T09:39:23.741Z,18.7
2023-04-25T09:45:08.772Z,19.18
2023-04-25T09:51:04.513Z,19.61
2023-04-25T09:56:49.280Z,19.6
2023-04-25T10:02:34.449Z,19.86
2023-04-25T10:08:19.657Z,19.79
2023-04-25T10:14:03.839Z,19.84
2023-04-25T10:19:48.125Z,19.98
2023-04-25T10:25:32.531Z,20.04
2023-04-25T10:31:17.771Z,19.72
2023-04-25T10:37:02.534Z,19.64
2023-04-25T10:42:46.676Z,19.72
2023-04-25T10:48:31.727Z,19.85
2023-04-25T10:54:18.664Z,19.78
2023-04-25T11:00:06.440Z,19.77
2023-04-25T11:05:58.084Z,20.21
2023-04-25T11:11:41.936Z,20.64
2023-04-25T11:17:27.488Z,20.9
2023-04-25T11:23:12.344Z,20.79
2023-04-25T11:28:57.901Z,21.19
2023-04-25T11:34:43.869Z,21.71
2023-04-25T11:40:28.451Z,21.82
2023-04-25T11:46:13.133Z,21.9
2023-04-25T11:51:57.709Z,21.62
2023-04-25T11:57:43.345Z,21.57
2023-04-25T12:03:30.829Z,21.53
2023-04-25T12:09:16.281Z,21.45
2023-04-25T12:15:05.381Z,21.48
2023-04-25T12:20:49.572Z,21.56
2023-04-25T12:26:45.030Z,21.72
2023-04-25T12:32:29.328Z,21.88
2023-04-25T12:38:18.566Z,22.15
2023-04-25T12:44:03.081Z,22.48
2023-04-25T12:49:47.335Z,22.62
2023-04-25T12:55:31.674Z,22.85
2023-04-25T13:01:15.918Z,22.84
2023-04-25T13:07:00.534Z,22.97
2023-04-25T13:12:44.680Z,23.22
2023-04-25T13:18:28.960Z,23.2
2023-04-25T13:24:13.168Z,23.42
2023-04-25T13:29:57.527Z,23.59
2023-04-25T13:35:42.410Z,23.79
2023-04-25T13:41:26.748Z,24.03
2023-04-25T13:47:11.143Z,24.24
2023-04-25T13:52:55.687Z,24.36
2023-04-25T13:58:39.998Z,24.76
2023-04-25T14:04:24.669Z,25.1
2023-04-25T14:10:10.028Z,24.93
2023-04-25T14:15:55.708Z,24.55
2023-04-25T14:21:41.294Z,24.77
2023-04-25T14:27:28.668Z,25
2023-04-25T14:33:13.436Z,24.57
2023-04-25T14:38:57.889Z,24.41
2023-04-25T14:44:43.018Z,24.15
2023-04-25T14:50:27.365Z,23.94
2023-04-25T14:56:11.894Z,23.75
2023-04-25T15:01:59.146Z,23.63
2023-04-25T15:07:46.001Z,23.42
2023-04-25T15:13:30.917Z,23.43
2023-04-25T15:19:14.900Z,23.73
2023-04-25T15:24:58.957Z,23.92
2023-04-25T15:30:43.187Z,24.33
2023-04-25T15:36:27.232Z,24.56
2023-04-25T15:42:11.535Z,24.31
2023-04-25T15:47:56.275Z,24.23
2023-04-25T15:53:40.958Z,24.39
2023-04-25T15:59:25.143Z,24.71
2023-04-25T16:05:10.872Z,25.36
2023-04-25T16:10:56.019Z,25.45
2023-04-25T16:16:40.162Z,25.65
2023-04-25T16:22:24.566Z,25.98
2023-04-25T16:28:08.900Z,26.25
2023-04-25T16:33:53.493Z,26.92
2023-04-25T16:39:38.036Z,27.66
2023-04-25T16:45:22.317Z,27.77
2023-04-25T16:51:06.574Z,26.23
2023-04-25T16:56:50.912Z,25.61
2023-04-25T17:02:35.231Z,27.47
2023-04-25T17:08:20.192Z,28.65
2023-04-25T17:14:04.400Z,28.75
2023-04-25T17:19:48.715Z,28.58
2023-04-25T17:25:32.896Z,28.2
2023-04-25T17:31:17.096Z,27.3
2023-04-25T17:37:01.522Z,27.31
2023-04-25T17:42:45.788Z,27.19
2023-04-25T17:48:29.724Z,27.13
2023-04-25T17:54:13.998Z,27.07
2023-04-25T17:59:58.247Z,26.18
2023-04-25T18:05:43.701Z,25.44
2023-04-25T18:11:28.409Z,24.83
2023-04-25T18:17:12.586Z,24.28
2023-04-25T18:22:56.788Z,23.95
2023-04-25T18:28:40.982Z,23.42
2023-04-25T18:34:27.186Z,22.99
2023-04-25T18:40:11.977Z,22.61
2023-04-25T18:45:56.354Z,22.26
2023-04-25T18:51:40.597Z,21.98
2023-04-25T18:57:24.909Z,21.66
2023-04-25T19:03:09.268Z,21.39
2023-04-25T19:08:54.661Z,21.11
2023-04-25T19:14:38.823Z,20.83
2023-04-25T19:20:23.203Z,20.59
2023-04-25T19:26:07.464Z,20.37
2023-04-25T19:31:53.307Z,20.15
2023-04-25T19:37:37.885Z,19.95
2023-04-25T19:43:22.463Z,19.76
2023-04-25T19:49:08.265Z,19.6
2023-04-25T19:54:56.165Z,19.43
2023-04-25T20:00:40.456Z,19.26
2023-04-25T20:06:24.563Z,19.09
2023-04-25T20:12:08.918Z,18.93
2023-04-25T20:17:53.303Z,18.78
2023-04-25T20:23:37.814Z,18.65
2023-04-25T20:29:22.860Z,18.49
2023-04-25T20:35:07.838Z,18.35
2023-04-25T20:40:52.584Z,18.21
2023-04-25T20:46:36.774Z,18.11
2023-04-25T20:52:21.055Z,18
2023-04-25T20:58:05.184Z,17.86
2023-04-25T21:03:49.647Z,17.72
2023-04-25T21:09:34.868Z,17.61
2023-04-25T21:15:20.063Z,17.49
2023-04-25T21:21:05.251Z,17.39
2023-04-25T21:26:49.460Z,17.29
2023-04-25T21:32:34.511Z,17.17
2023-04-25T21:38:18.984Z,17.07
2023-04-25T21:44:05.302Z,16.97
2023-04-25T21:49:49.571Z,16.86
2023-04-25T21:55:36.311Z,16.8
2023-04-25T22:01:23.090Z,16.73
2023-04-25T22:07:07.702Z,16.67
2023-04-25T22:12:52.195Z,16.57
2023-04-25T22:18:36.346Z,16.5
2023-04-25T22:24:20.729Z,16.35
2023-04-25T22:30:05.948Z,16.3
2023-04-25T22:35:50.250Z,16.11
2023-04-25T22:41:34.643Z,15.98
2023-04-25T22:47:19.019Z,15.83
2023-04-25T22:53:03.325Z,15.73
2023-04-25T22:58:48.434Z,15.63
2023-04-25T23:04:33.995Z,15.53
2023-04-25T23:10:18.483Z,15.41
2023-04-25T23:16:08.715Z,15.34
2023-04-25T23:21:53.258Z,15.25
2023-04-25T23:27:37.367Z,15.14
2023-04-25T23:33:21.602Z,15.03
2023-04-25T23:39:05.620Z,14.98
2023-04-25T23:44:50.954Z,14.87
2023-04-25T23:50:34.989Z,14.8
2023-04-25T23:56:19.092Z,14.7
